createdAt,value
2023-03-30T00:01:36.327Z,8.09
2023-03-30T00:05:49.853Z,8.08
2023-03-30T00:08:21.629Z,8.09
2023-03-30T00:11:06.151Z,8.09
2023-03-30T00:13:47.318Z,8.11
2023-03-30T00:17:26.301Z,8.10
2023-03-30T00:20:20.016Z,8.11
2023-03-30T00:23:14.341Z,8.11
2023-03-30T00:25:59.993Z,8.11
2023-03-30T00:29:36.441Z,8.11
2023-03-30T00:33:46.525Z,8.09
2023-03-30T00:36:47.411Z,8.06
2023-03-30T00:39:38.612Z,8.05
2023-03-30T00:42:37.853Z,8.04
2023-03-30T00:45:51.435Z,8.03
2023-03-30T00:49:10.755Z,8.01
2023-03-30T00:53:31.074Z,7.96
2023-03-30T00:57:39.394Z,7.90
2023-03-30T01:01:42.188Z,7.84
2023-03-30T01:05:04.752Z,7.78
2023-03-30T01:08:53.638Z,7.73
2023-03-30T01:12:06.709Z,7.70
2023-03-30T01:14:42.030Z,7.66
2023-03-30T01:17:36.755Z,7.63
2023-03-30T01:21:24.500Z,7.58
2023-03-30T01:25:11.647Z,7.54
2023-03-30T01:28:51.254Z,7.50
2023-03-30T01:32:03.459Z,7.48
2023-03-30T01:34:52.019Z,7.47
2023-03-30T01:38:31.647Z,7.45
2023-03-30T01:42:37.722Z,7.42
2023-03-30T01:46:03.539Z,7.40
2023-03-30T01:48:53.694Z,7.35
2023-03-30T01:53:11.899Z,7.34
2023-03-30T01:56:40.144Z,7.32
2023-03-30T02:00:06.795Z,7.31
2023-03-30T02:03:14.175Z,7.30
2023-03-30T02:06:54.609Z,7.30
2023-03-30T02:09:58.331Z,7.29
2023-03-30T02:13:32.074Z,7.27
2023-03-30T02:17:02.095Z,7.26
2023-03-30T02:20:13.807Z,7.25
2023-03-30T02:23:09.107Z,7.24
2023-03-30T02:25:58.726Z,7.23
2023-03-30T02:28:32.812Z,7.23
2023-03-30T02:31:45.906Z,7.23
2023-03-30T02:35:11.657Z,7.22
2023-03-30T02:38:21.716Z,7.21
2023-03-30T02:42:00.931Z,7.20
2023-03-30T02:45:15.697Z,7.20
2023-03-30T02:49:10.535Z,7.19
2023-03-30T02:52:25.018Z,7.19
2023-03-30T02:56:07.223Z,7.18
2023-03-30T03:00:26.183Z,7.16
2023-03-30T03:04:25.274Z,7.14
2023-03-30T03:08:08.346Z,7.13
2023-03-30T03:11:08.628Z,7.12
2023-03-30T03:15:38.087Z,7.13
2023-03-30T03:19:41.393Z,7.13
2023-03-30T03:23:17.762Z,7.14
2023-03-30T03:27:40.926Z,7.16
2023-03-30T03:32:06.374Z,7.15
2023-03-30T03:36:25.728Z,7.17
2023-03-30T03:40:29.943Z,7.17
2023-03-30T03:44:16.024Z,7.17
2023-03-30T03:47:33.088Z,7.16
2023-03-30T03:51:12.512Z,7.16
2023-03-30T03:55:41.427Z,7.17
2023-03-30T03:59:17.069Z,7.17
2023-03-30T04:02:24.975Z,7.17
2023-03-30T04:06:38.601Z,7.15
2023-03-30T04:10:34.729Z,7.13
2023-03-30T04:14:49.697Z,7.11
2023-03-30T04:18:51.903Z,7.10
2023-03-30T04:23:23.044Z,7.09
2023-03-30T04:27:49.822Z,7.08
2023-03-30T04:31:56.284Z,7.09
2023-03-30T04:35:33.545Z,7.11
2023-03-30T04:39:06.936Z,7.11
2023-03-30T04:43:17.174Z,7.12
2023-03-30T04:47:18.029Z,7.11
2023-03-30T04:51:42.908Z,7.12
2023-03-30T04:55:08.645Z,7.13
2023-03-30T04:58:48.239Z,7.15
2023-03-30T05:02:16.735Z,7.17
2023-03-30T05:06:21.858Z,7.17
2023-03-30T05:10:12.897Z,7.16
2023-03-30T05:14:41.702Z,7.16
2023-03-30T05:18:20.499Z,7.16
2023-03-30T05:22:54.438Z,7.18
2023-03-30T05:26:54.061Z,7.19
2023-03-30T05:30:57.142Z,7.22
2023-03-30T05:34:31.473Z,7.25
2023-03-30T05:38:32.751Z,7.28
2023-03-30T05:43:02.254Z,7.31
2023-03-30T05:47:08.450Z,7.34
2023-03-30T05:51:32.313Z,7.36
2023-03-30T05:55:51.157Z,7.39
2023-03-30T06:00:34.545Z,7.47
2023-03-30T06:03:37.483Z,7.51
2023-03-30T06:07:18.816Z,7.56
2023-03-30T06:10:38.079Z,7.62
2023-03-30T06:14:03.293Z,7.67
2023-03-30T06:17:10.039Z,7.72
2023-03-30T06:20:42.378Z,7.73
2023-03-30T06:24:27.057Z,7.76
2023-03-30T06:27:41.957Z,7.77
2023-03-30T06:30:35.363Z,7.79
2023-03-30T06:33:33.203Z,7.83
2023-03-30T06:36:58.530Z,7.90
2023-03-30T06:39:57.292Z,7.94
2023-03-30T06:43:09.638Z,7.97
2023-03-30T06:46:26.757Z,8.00
2023-03-30T06:49:58.387Z,8.03
2023-03-30T06:54:15.751Z,8.09
2023-03-30T06:58:15.502Z,8.18
2023-03-30T07:02:24.671Z,8.30
2023-03-30T07:06:23.630Z,8.48
2023-03-30T07:09:16.519Z,8.64
2023-03-30T07:12:23.790Z,8.83
2023-03-30T07:14:52.893Z,8.93
2023-03-30T07:18:25.355Z,9.05
2023-03-30T07:22:00.777Z,9.17
2023-03-30T07:25:40.349Z,9.26
2023-03-30T07:28:58.963Z,9.32
2023-03-30T07:32:18.178Z,9.41
2023-03-30T07:35:43.518Z,9.52
2023-03-30T07:39:15.649Z,9.61
2023-03-30T07:42:22.720Z,9.67
2023-03-30T07:45:23.220Z,9.73
2023-03-30T07:47:59.763Z,9.82
2023-03-30T07:51:13.934Z,9.91
2023-03-30T07:55:46.943Z,10.05
2023-03-30T07:59:27.390Z,10.18
2023-03-30T08:03:00.820Z,10.23
2023-03-30T08:06:41.465Z,10.26
2023-03-30T08:10:19.074Z,10.32
2023-03-30T08:13:40.470Z,10.39
2023-03-30T08:16:48.281Z,10.46
2023-03-30T08:20:04.406Z,10.52
2023-03-30T08:23:06.668Z,10.58
2023-03-30T08:26:47.636Z,10.61
2023-03-30T08:30:49.448Z,10.67
2023-03-30T08:34:18.349Z,10.78
2023-03-30T08:38:37.787Z,10.93
2023-03-30T08:41:48.818Z,11.06
2023-03-30T08:45:34.857Z,11.31
2023-03-30T08:49:28.973Z,11.53
2023-03-30T08:52:54.255Z,11.66
2023-03-30T08:56:29.081Z,11.79
2023-03-30T09:00:53.693Z,11.94
2023-03-30T09:05:03.361Z,12.12
2023-03-30T09:09:06.472Z,12.39
2023-03-30T09:13:18.917Z,12.78
2023-03-30T09:17:34.126Z,13.03
2023-03-30T09:21:17.704Z,13.34
2023-03-30T09:24:58.333Z,13.64
2023-03-30T09:29:25.970Z,13.70
2023-03-30T09:32:42.152Z,13.63
2023-03-30T09:36:00.125Z,13.59
2023-03-30T09:40:18.506Z,13.61
2023-03-30T09:44:19.265Z,13.58
2023-03-30T09:48:01.876Z,13.60
2023-03-30T09:51:42.211Z,13.58
2023-03-30T09:55:55.533Z,13.60
2023-03-30T09:59:58.264Z,13.61
2023-03-30T10:03:39.604Z,13.61
2023-03-30T10:08:01.695Z,13.63
2023-03-30T10:11:42.053Z,13.64
2023-03-30T10:15:39.209Z,13.61
2023-03-30T10:19:55.323Z,13.50
2023-03-30T10:23:24.617Z,13.34
2023-03-30T10:27:28.680Z,13.17
2023-03-30T10:31:38.144Z,12.97
2023-03-30T10:35:49.645Z,12.82
2023-03-30T10:39:59.255Z,12.77
2023-03-30T10:43:30.386Z,12.79
2023-03-30T10:46:44.800Z,12.82
2023-03-30T10:50:04.182Z,12.87
2023-03-30T10:53:19.741Z,12.93
2023-03-30T10:57:23.136Z,12.99
2023-03-30T11:00:58.658Z,12.99
2023-03-30T11:03:57.686Z,12.94
2023-03-30T11:06:48.598Z,12.90
2023-03-30T11:09:25.405Z,12.83
2023-03-30T11:12:39.816Z,12.76
2023-03-30T11:16:52.054Z,12.68
2023-03-30T11:20:55.733Z,12.62
2023-03-30T11:24:55.480Z,12.62
2023-03-30T11:27:46.812Z,12.66
2023-03-30T11:30:59.641Z,12.70
2023-03-30T11:34:24.192Z,12.75
2023-03-30T11:37:33.469Z,12.74
2023-03-30T11:40:42.158Z,12.74
2023-03-30T11:43:39.547Z,12.72
2023-03-30T11:46:45.623Z,12.71
2023-03-30T11:50:25.482Z,12.68
2023-03-30T11:54:39.053Z,12.68
2023-03-30T11:58:46.697Z,12.69
2023-03-30T12:02:30.953Z,12.71
2023-03-30T12:05:48.549Z,12.72
2023-03-30T12:09:40.963Z,12.76
2023-03-30T12:12:59.699Z,12.86
2023-03-30T12:16:32.263Z,12.96
2023-03-30T12:19:56.712Z,13.10
2023-03-30T12:23:56.528Z,13.30
2023-03-30T12:32:29.627Z,13.59
2023-03-30T13:29:37.188Z,17.35
2023-03-30T13:33:43.872Z,17.59
2023-03-30T13:37:48.943Z,17.68
2023-03-30T13:42:15.517Z,17.69
2023-03-30T13:46:13.295Z,17.80
2023-03-30T13:50:30.402Z,17.67
2023-03-30T13:54:15.353Z,17.60
2023-03-30T13:58:35.343Z,17.62
2023-03-30T14:02:15.600Z,17.59
2023-03-30T14:05:36.891Z,17.54
2023-03-30T14:09:37.898Z,17.45
2023-03-30T14:13:14.739Z,17.32
2023-03-30T14:16:14.017Z,17.20
2023-03-30T14:20:05.456Z,17.10
2023-03-30T14:24:17.552Z,16.93
2023-03-30T14:28:35.118Z,16.78
2023-03-30T14:32:27.186Z,16.62
2023-03-30T14:36:24.377Z,16.46
2023-03-30T14:56:20.099Z,15.68
2023-03-30T15:00:37.883Z,15.30
2023-03-30T15:08:44.423Z,14.28
2023-03-30T15:12:34.242Z,13.85
2023-03-30T15:16:43.893Z,13.64
2023-03-30T15:21:04.323Z,13.50
2023-03-30T15:25:19.236Z,13.41
2023-03-30T15:29:49.589Z,13.30
2023-03-30T15:34:24.204Z,13.25
2023-03-30T16:01:35.075Z,12.86
2023-03-30T16:05:54.213Z,12.80
2023-03-30T16:10:06.160Z,12.73
2023-03-30T16:14:25.828Z,12.67
2023-03-30T16:18:39.454Z,12.62
2023-03-30T16:23:01.217Z,12.57
2023-03-30T16:27:12.732Z,12.52
2023-03-30T16:31:21.872Z,12.47
2023-03-30T16:35:34.671Z,12.43
2023-03-30T16:39:59.417Z,12.39
2023-03-30T16:44:03.836Z,12.33
2023-03-30T16:47:51.007Z,12.30
2023-03-30T16:52:20.429Z,12.25
2023-03-30T16:56:23.530Z,12.21
2023-03-30T17:00:58.270Z,12.15
2023-03-30T17:05:16.323Z,12.11
2023-03-30T17:38:09.506Z,11.83
2023-03-30T17:42:17.790Z,11.79
2023-03-30T17:46:47.093Z,11.76
2023-03-30T17:51:06.624Z,11.74
2023-03-30T17:55:15.457Z,11.72
2023-03-30T18:17:28.039Z,11.36
2023-03-30T18:34:00.702Z,11.26
2023-03-30T18:38:13.000Z,11.22
2023-03-30T18:42:43.680Z,11.18
2023-03-30T18:47:12.693Z,11.16
2023-03-30T18:51:33.218Z,11.14
2023-03-30T18:55:51.019Z,11.10
2023-03-30T19:00:11.718Z,11.08
2023-03-30T19:04:23.597Z,11.04
2023-03-30T19:40:43.226Z,10.58
2023-03-30T19:44:50.421Z,10.54
2023-03-30T19:48:51.468Z,10.49
2023-03-30T19:53:03.340Z,10.43
2023-03-30T19:57:11.879Z,10.34
2023-03-30T21:17:53.176Z,10.21
2023-03-30T21:22:22.369Z,10.24
2023-03-30T21:26:51.716Z,10.26
2023-03-30T21:31:14.842Z,10.29
2023-03-30T21:57:11.012Z,10.36
2023-03-30T22:01:31.451Z,10.35
2023-03-30T22:06:00.396Z,10.32
2023-03-30T22:10:30.965Z,10.29
2023-03-30T22:14:48.740Z,10.24
2023-03-30T22:44:41.777Z,9.97
2023-03-30T22:48:59.878Z,9.92
2023-03-30T22:53:29.161Z,9.90
2023-03-30T22:57:58.570Z,9.86
2023-03-30T23:02:27.919Z,9.84
2023-03-30T23:06:58.365Z,9.81
2023-03-30T23:32:39.172Z,9.65
2023-03-30T23:36:08.681Z,9.58
2023-03-30T23:40:38.412Z,9.50
2023-03-30T23:44:56.558Z,9.43
